Forest Dale, Vermont
Current Conditions -  °F | °C
As of 9:15 AM on Sunday 21 Dec 2014 (Local Time) from K6B0 Reporting Station
Overcast Overcast  
Wind Chill: 22°   Ceiling: 4100
Heat Index: 22°   Visibility: 7mi
Dew Point: 21°   Wind: 0mph
Humidity: 99%   Direction: NA
Pressure: 30.34"   Gusts: NA
Location:  43.83°N, 73.05°W
Report Text: K6B0 211415Z AUTO 00000KT 7SM OVC041 M06/M06 A3034 RMK AO2 T10571059
Loading
Personal Weather Stations






























Interactive Weather Map New forecast layout! Learn more

10-Day Weather Forecast

Advertisements
Track Severe Weather on mobile